sensor_id;sensor_type;location;lat;lon;timestamp;P1;durP1;ratioP1;P2;durP2;ratioP2
27612;SDS011;15036;48.094;-1.690;2023-04-06T00:01:11;38.00;;;33.13;;
27612;SDS011;15036;48.094;-1.690;2023-04-06T00:03:36;38.22;;;33.40;;
27612;SDS011;15036;48.094;-1.690;2023-04-06T00:06:02;38.85;;;33.05;;
27612;SDS011;15036;48.094;-1.690;2023-04-06T00:08:27;38.70;;;33.60;;
27612;SDS011;15036;48.094;-1.690;2023-04-06T00:10:53;39.50;;;34.53;;
27612;SDS011;15036;48.094;-1.690;2023-04-06T00:13:19;41.23;;;34.87;;
27612;SDS011;15036;48.094;-1.690;2023-04-06T00:15:45;41.50;;;35.30;;
27612;SDS011;15036;48.094;-1.690;2023-04-06T00:18:10;41.13;;;34.63;;
27612;SDS011;15036;48.094;-1.690;2023-04-06T00:20:36;40.70;;;34.85;;
27612;SDS011;15036;48.094;-1.690;2023-04-06T00:23:01;39.97;;;34.67;;
27612;SDS011;15036;48.094;-1.690;2023-04-06T00:25:27;39.75;;;35.03;;
27612;SDS011;15036;48.094;-1.690;2023-04-06T00:27:52;38.75;;;33.70;;
27612;SDS011;15036;48.094;-1.690;2023-04-06T00:30:18;39.30;;;34.35;;
27612;SDS011;15036;48.094;-1.690;2023-04-06T00:32:43;39.70;;;34.10;;
27612;SDS011;15036;48.094;-1.690;2023-04-06T00:35:09;37.45;;;32.80;;
27612;SDS011;15036;48.094;-1.690;2023-04-06T00:37:35;40.08;;;34.38;;
27612;SDS011;15036;48.094;-1.690;2023-04-06T00:40:00;38.63;;;33.80;;
27612;SDS011;15036;48.094;-1.690;2023-04-06T00:42:26;38.30;;;34.10;;
27612;SDS011;15036;48.094;-1.690;2023-04-06T00:44:55;39.28;;;34.10;;
27612;SDS011;15036;48.094;-1.690;2023-04-06T00:47:22;39.15;;;34.40;;
27612;SDS011;15036;48.094;-1.690;2023-04-06T00:49:48;39.75;;;34.53;;
27612;SDS011;15036;48.094;-1.690;2023-04-06T00:52:13;42.78;;;35.53;;
27612;SDS011;15036;48.094;-1.690;2023-04-06T00:54:39;41.53;;;35.20;;
27612;SDS011;15036;48.094;-1.690;2023-04-06T00:57:05;40.20;;;35.27;;
27612;SDS011;15036;48.094;-1.690;2023-04-06T00:59:30;42.50;;;36.73;;
27612;SDS011;15036;48.094;-1.690;2023-04-06T01:01:56;40.00;;;34.93;;
27612;SDS011;15036;48.094;-1.690;2023-04-06T01:04:22;40.53;;;34.30;;
27612;SDS011;15036;48.094;-1.690;2023-04-06T01:06:48;41.00;;;34.50;;
27612;SDS011;15036;48.094;-1.690;2023-04-06T01:09:14;41.65;;;36.42;;
27612;SDS011;15036;48.094;-1.690;2023-04-06T01:11:40;42.03;;;36.25;;
27612;SDS011;15036;48.094;-1.690;2023-04-06T01:14:05;40.25;;;34.92;;
27612;SDS011;15036;48.094;-1.690;2023-04-06T01:16:31;41.80;;;35.45;;
27612;SDS011;15036;48.094;-1.690;2023-04-06T01:18:57;39.53;;;34.20;;
27612;SDS011;15036;48.094;-1.690;2023-04-06T01:21:22;41.28;;;35.17;;
27612;SDS011;15036;48.094;-1.690;2023-04-06T01:23:50;40.28;;;34.72;;
27612;SDS011;15036;48.094;-1.690;2023-04-06T01:26:15;40.83;;;34.87;;
27612;SDS011;15036;48.094;-1.690;2023-04-06T01:28:41;40.17;;;35.23;;
27612;SDS011;15036;48.094;-1.690;2023-04-06T01:31:07;39.80;;;34.65;;
27612;SDS011;15036;48.094;-1.690;2023-04-06T01:33:33;37.08;;;32.90;;
27612;SDS011;15036;48.094;-1.690;2023-04-06T01:35:59;40.00;;;34.63;;
27612;SDS011;15036;48.094;-1.690;2023-04-06T01:38:25;38.83;;;34.08;;
27612;SDS011;15036;48.094;-1.690;2023-04-06T01:40:51;37.78;;;33.67;;
27612;SDS011;15036;48.094;-1.690;2023-04-06T01:43:17;37.60;;;33.50;;
27612;SDS011;15036;48.094;-1.690;2023-04-06T01:45:42;37.57;;;32.57;;
27612;SDS011;15036;48.094;-1.690;2023-04-06T01:48:07;38.13;;;33.57;;
27612;SDS011;15036;48.094;-1.690;2023-04-06T01:50:33;37.40;;;33.50;;
27612;SDS011;15036;48.094;-1.690;2023-04-06T01:52:58;36.03;;;32.13;;
27612;SDS011;15036;48.094;-1.690;2023-04-06T01:55:24;39.97;;;32.80;;
27612;SDS011;15036;48.094;-1.690;2023-04-06T01:57:49;37.35;;;32.40;;
27612;SDS011;15036;48.094;-1.690;2023-04-06T02:00:15;35.47;;;31.35;;
27612;SDS011;15036;48.094;-1.690;2023-04-06T02:02:41;35.50;;;31.45;;
27612;SDS011;15036;48.094;-1.690;2023-04-06T02:05:06;34.90;;;30.43;;
27612;SDS011;15036;48.094;-1.690;2023-04-06T02:07:32;34.53;;;30.88;;
27612;SDS011;15036;48.094;-1.690;2023-04-06T02:09:58;36.95;;;31.95;;
27612;SDS011;15036;48.094;-1.690;2023-04-06T02:12:23;34.50;;;30.80;;
27612;SDS011;15036;48.094;-1.690;2023-04-06T02:14:48;33.13;;;29.57;;
27612;SDS011;15036;48.094;-1.690;2023-04-06T02:17:14;33.80;;;30.10;;
27612;SDS011;15036;48.094;-1.690;2023-04-06T02:19:40;33.57;;;29.60;;
27612;SDS011;15036;48.094;-1.690;2023-04-06T02:22:05;33.90;;;30.30;;
27612;SDS011;15036;48.094;-1.690;2023-04-06T02:24:32;31.87;;;28.43;;
27612;SDS011;15036;48.094;-1.690;2023-04-06T02:26:57;31.52;;;28.05;;
27612;SDS011;15036;48.094;-1.690;2023-04-06T02:29:23;32.03;;;28.53;;
27612;SDS011;15036;48.094;-1.690;2023-04-06T02:31:48;30.87;;;27.57;;
27612;SDS011;15036;48.094;-1.690;2023-04-06T02:34:13;30.67;;;27.37;;
27612;SDS011;15036;48.094;-1.690;2023-04-06T02:36:45;29.88;;;26.67;;
27612;SDS011;15036;48.094;-1.690;2023-04-06T02:39:10;29.88;;;26.58;;
27612;SDS011;15036;48.094;-1.690;2023-04-06T02:41:36;30.42;;;26.80;;
27612;SDS011;15036;48.094;-1.690;2023-04-06T02:44:02;28.93;;;25.83;;
27612;SDS011;15036;48.094;-1.690;2023-04-06T02:46:28;28.97;;;25.83;;
27612;SDS011;15036;48.094;-1.690;2023-04-06T02:48:53;28.70;;;25.00;;
27612;SDS011;15036;48.094;-1.690;2023-04-06T02:51:18;28.23;;;25.10;;
27612;SDS011;15036;48.094;-1.690;2023-04-06T02:53:44;27.60;;;24.60;;
27612;SDS011;15036;48.094;-1.690;2023-04-06T02:56:09;27.50;;;24.50;;
27612;SDS011;15036;48.094;-1.690;2023-04-06T02:58:35;27.57;;;24.60;;
27612;SDS011;15036;48.094;-1.690;2023-04-06T03:01:00;26.70;;;23.90;;
27612;SDS011;15036;48.094;-1.690;2023-04-06T03:03:26;26.80;;;23.70;;
27612;SDS011;15036;48.094;-1.690;2023-04-06T03:05:51;25.90;;;23.15;;
27612;SDS011;15036;48.094;-1.690;2023-04-06T03:08:17;26.08;;;23.27;;
27612;SDS011;15036;48.094;-1.690;2023-04-06T03:10:42;25.70;;;23.00;;
27612;SDS011;15036;48.094;-1.690;2023-04-06T03:13:07;25.77;;;23.03;;
27612;SDS011;15036;48.094;-1.690;2023-04-06T03:15:33;25.40;;;22.70;;
27612;SDS011;15036;48.094;-1.690;2023-04-06T03:17:58;26.03;;;23.23;;
27612;SDS011;15036;48.094;-1.690;2023-04-06T03:20:23;24.40;;;21.87;;
27612;SDS011;15036;48.094;-1.690;2023-04-06T03:22:49;24.17;;;21.52;;
27612;SDS011;15036;48.094;-1.690;2023-04-06T03:25:14;24.55;;;21.95;;
27612;SDS011;15036;48.094;-1.690;2023-04-06T03:27:40;24.25;;;21.40;;
27612;SDS011;15036;48.094;-1.690;2023-04-06T03:30:05;23.73;;;21.23;;
27612;SDS011;15036;48.094;-1.690;2023-04-06T03:32:31;23.63;;;21.13;;
27612;SDS011;15036;48.094;-1.690;2023-04-06T03:34:56;22.45;;;19.92;;
27612;SDS011;15036;48.094;-1.690;2023-04-06T03:37:22;21.98;;;19.58;;
27612;SDS011;15036;48.094;-1.690;2023-04-06T03:39:47;23.47;;;19.83;;
27612;SDS011;15036;48.094;-1.690;2023-04-06T03:42:12;21.67;;;19.20;;
27612;SDS011;15036;48.094;-1.690;2023-04-06T03:44:38;20.73;;;18.63;;
27612;SDS011;15036;48.094;-1.690;2023-04-06T03:47:03;23.00;;;19.63;;
27612;SDS011;15036;48.094;-1.690;2023-04-06T03:49:29;20.38;;;18.23;;
27612;SDS011;15036;48.094;-1.690;2023-04-06T03:51:56;21.63;;;19.33;;
27612;SDS011;15036;48.094;-1.690;2023-04-06T03:54:21;21.20;;;18.25;;
27612;SDS011;15036;48.094;-1.690;2023-04-06T03:56:47;20.60;;;18.40;;
27612;SDS011;15036;48.094;-1.690;2023-04-06T03:59:12;19.10;;;17.10;;
27612;SDS011;15036;48.094;-1.690;2023-04-06T04:01:37;19.27;;;17.17;;
27612;SDS011;15036;48.094;-1.690;2023-04-06T04:04:04;18.15;;;15.63;;
27612;SDS011;15036;48.094;-1.690;2023-04-06T04:06:29;16.60;;;14.90;;
27612;SDS011;15036;48.094;-1.690;2023-04-06T04:08:55;17.25;;;15.40;;
27612;SDS011;15036;48.094;-1.690;2023-04-06T04:11:21;17.48;;;15.07;;
27612;SDS011;15036;48.094;-1.690;2023-04-06T04:13:46;17.07;;;15.27;;
27612;SDS011;15036;48.094;-1.690;2023-04-06T04:16:12;16.02;;;14.30;;
27612;SDS011;15036;48.094;-1.690;2023-04-06T04:18:37;17.10;;;14.93;;
27612;SDS011;15036;48.094;-1.690;2023-04-06T04:21:02;15.80;;;14.20;;
27612;SDS011;15036;48.094;-1.690;2023-04-06T04:23:28;16.35;;;13.90;;
27612;SDS011;15036;48.094;-1.690;2023-04-06T04:25:53;15.43;;;13.60;;
27612;SDS011;15036;48.094;-1.690;2023-04-06T04:28:19;16.40;;;13.73;;
27612;SDS011;15036;48.094;-1.690;2023-04-06T04:30:45;14.60;;;12.90;;
27612;SDS011;15036;48.094;-1.690;2023-04-06T04:33:11;15.53;;;13.23;;
27612;SDS011;15036;48.094;-1.690;2023-04-06T04:35:36;14.60;;;13.10;;
27612;SDS011;15036;48.094;-1.690;2023-04-06T04:38:02;15.03;;;12.67;;
27612;SDS011;15036;48.094;-1.690;2023-04-06T04:40:27;14.87;;;13.17;;
27612;SDS011;15036;48.094;-1.690;2023-04-06T04:42:53;15.10;;;13.10;;
27612;SDS011;15036;48.094;-1.690;2023-04-06T04:45:18;14.93;;;13.20;;
27612;SDS011;15036;48.094;-1.690;2023-04-06T04:47:43;16.23;;;13.02;;
27612;SDS011;15036;48.094;-1.690;2023-04-06T04:50:09;14.32;;;12.63;;
27612;SDS011;15036;48.094;-1.690;2023-04-06T04:52:35;15.13;;;13.52;;
27612;SDS011;15036;48.094;-1.690;2023-04-06T04:55:02;14.37;;;12.87;;
27612;SDS011;15036;48.094;-1.690;2023-04-06T04:57:27;15.02;;;13.43;;
27612;SDS011;15036;48.094;-1.690;2023-04-06T04:59:53;15.10;;;13.23;;
27612;SDS011;15036;48.094;-1.690;2023-04-06T05:02:18;15.07;;;12.50;;
27612;SDS011;15036;48.094;-1.690;2023-04-06T05:04:43;14.50;;;13.07;;
27612;SDS011;15036;48.094;-1.690;2023-04-06T05:07:09;15.20;;;12.67;;
27612;SDS011;15036;48.094;-1.690;2023-04-06T05:09:34;14.23;;;12.73;;
27612;SDS011;15036;48.094;-1.690;2023-04-06T05:12:00;15.50;;;13.73;;
27612;SDS011;15036;48.094;-1.690;2023-04-06T05:14:26;15.03;;;13.10;;
27612;SDS011;15036;48.094;-1.690;2023-04-06T05:16:52;14.50;;;13.00;;
27612;SDS011;15036;48.094;-1.690;2023-04-06T05:19:18;13.88;;;12.48;;
27612;SDS011;15036;48.094;-1.690;2023-04-06T05:21:43;14.33;;;12.37;;
27612;SDS011;15036;48.094;-1.690;2023-04-06T05:24:09;15.63;;;12.60;;
27612;SDS011;15036;48.094;-1.690;2023-04-06T05:26:34;14.30;;;12.80;;
27612;SDS011;15036;48.094;-1.690;2023-04-06T05:29:00;14.13;;;12.33;;
27612;SDS011;15036;48.094;-1.690;2023-04-06T05:31:26;15.40;;;12.87;;
27612;SDS011;15036;48.094;-1.690;2023-04-06T05:33:51;16.03;;;12.70;;
27612;SDS011;15036;48.094;-1.690;2023-04-06T05:36:17;14.23;;;12.73;;
27612;SDS011;15036;48.094;-1.690;2023-04-06T05:38:42;13.70;;;12.20;;
27612;SDS011;15036;48.094;-1.690;2023-04-06T05:41:07;13.57;;;12.17;;
27612;SDS011;15036;48.094;-1.690;2023-04-06T05:43:33;14.07;;;12.25;;
27612;SDS011;15036;48.094;-1.690;2023-04-06T05:45:58;14.73;;;11.97;;
27612;SDS011;15036;48.094;-1.690;2023-04-06T05:48:24;13.13;;;11.65;;
27612;SDS011;15036;48.094;-1.690;2023-04-06T05:50:50;13.43;;;11.88;;
27612;SDS011;15036;48.094;-1.690;2023-04-06T05:53:16;14.00;;;11.70;;
27612;SDS011;15036;48.094;-1.690;2023-04-06T05:55:41;12.90;;;11.20;;
27612;SDS011;15036;48.094;-1.690;2023-04-06T05:58:07;13.17;;;11.63;;
27612;SDS011;15036;48.094;-1.690;2023-04-06T06:00:32;13.43;;;10.73;;
27612;SDS011;15036;48.094;-1.690;2023-04-06T06:02:58;12.53;;;11.23;;
27612;SDS011;15036;48.094;-1.690;2023-04-06T06:05:23;13.40;;;11.33;;
27612;SDS011;15036;48.094;-1.690;2023-04-06T06:07:49;13.77;;;11.13;;
27612;SDS011;15036;48.094;-1.690;2023-04-06T06:10:15;12.88;;;11.20;;
27612;SDS011;15036;48.094;-1.690;2023-04-06T06:12:40;13.15;;;11.02;;
27612;SDS011;15036;48.094;-1.690;2023-04-06T06:15:06;13.52;;;10.90;;
27612;SDS011;15036;48.094;-1.690;2023-04-06T06:17:32;12.43;;;10.70;;
27612;SDS011;15036;48.094;-1.690;2023-04-06T06:19:57;11.53;;;10.30;;
27612;SDS011;15036;48.094;-1.690;2023-04-06T06:22:23;13.07;;;10.57;;
27612;SDS011;15036;48.094;-1.690;2023-04-06T06:24:48;11.70;;;10.30;;
27612;SDS011;15036;48.094;-1.690;2023-04-06T06:27:15;11.27;;;10.07;;
27612;SDS011;15036;48.094;-1.690;2023-04-06T06:29:41;11.73;;;10.23;;
27612;SDS011;15036;48.094;-1.690;2023-04-06T06:32:06;11.77;;;9.98;;
27612;SDS011;15036;48.094;-1.690;2023-04-06T06:34:33;13.25;;;10.13;;
27612;SDS011;15036;48.094;-1.690;2023-04-06T06:36:59;12.45;;;10.27;;
27612;SDS011;15036;48.094;-1.690;2023-04-06T06:39:25;12.20;;;10.10;;
27612;SDS011;15036;48.094;-1.690;2023-04-06T06:41:51;12.70;;;9.90;;
27612;SDS011;15036;48.094;-1.690;2023-04-06T06:44:16;13.23;;;10.53;;
27612;SDS011;15036;48.094;-1.690;2023-04-06T06:46:42;12.93;;;10.10;;
27612;SDS011;15036;48.094;-1.690;2023-04-06T06:49:07;11.97;;;10.20;;
27612;SDS011;15036;48.094;-1.690;2023-04-06T06:51:36;12.32;;;10.40;;
27612;SDS011;15036;48.094;-1.690;2023-04-06T06:54:01;11.70;;;10.03;;
27612;SDS011;15036;48.094;-1.690;2023-04-06T06:56:26;10.27;;;9.18;;
27612;SDS011;15036;48.094;-1.690;2023-04-06T06:58:52;11.00;;;9.80;;
27612;SDS011;15036;48.094;-1.690;2023-04-06T07:01:18;11.93;;;9.60;;
27612;SDS011;15036;48.094;-1.690;2023-04-06T07:03:43;13.77;;;9.43;;
27612;SDS011;15036;48.094;-1.690;2023-04-06T07:06:09;12.38;;;9.50;;
27612;SDS011;15036;48.094;-1.690;2023-04-06T07:08:34;12.23;;;9.65;;
27612;SDS011;15036;48.094;-1.690;2023-04-06T07:10:59;11.27;;;9.47;;
27612;SDS011;15036;48.094;-1.690;2023-04-06T07:13:25;11.10;;;9.20;;
27612;SDS011;15036;48.094;-1.690;2023-04-06T07:15:52;13.10;;;9.45;;
27612;SDS011;15036;48.094;-1.690;2023-04-06T07:18:18;13.68;;;10.27;;
27612;SDS011;15036;48.094;-1.690;2023-04-06T07:20:44;12.32;;;9.02;;
27612;SDS011;15036;48.094;-1.690;2023-04-06T07:23:10;10.88;;;8.75;;
27612;SDS011;15036;48.094;-1.690;2023-04-06T07:25:35;11.50;;;8.57;;
27612;SDS011;15036;48.094;-1.690;2023-04-06T07:28:01;12.73;;;8.53;;
27612;SDS011;15036;48.094;-1.690;2023-04-06T07:30:28;12.30;;;8.85;;
27612;SDS011;15036;48.094;-1.690;2023-04-06T07:32:54;13.37;;;9.50;;
27612;SDS011;15036;48.094;-1.690;2023-04-06T07:35:24;11.23;;;8.77;;
27612;SDS011;15036;48.094;-1.690;2023-04-06T07:37:51;12.57;;;9.23;;
27612;SDS011;15036;48.094;-1.690;2023-04-06T07:40:17;13.07;;;9.43;;
27612;SDS011;15036;48.094;-1.690;2023-04-06T07:42:43;10.18;;;8.65;;
27612;SDS011;15036;48.094;-1.690;2023-04-06T07:45:08;12.07;;;9.00;;
27612;SDS011;15036;48.094;-1.690;2023-04-06T07:47:34;16.27;;;10.50;;
27612;SDS011;15036;48.094;-1.690;2023-04-06T07:49:59;11.97;;;9.27;;
27612;SDS011;15036;48.094;-1.690;2023-04-06T07:52:25;12.50;;;9.60;;
27612;SDS011;15036;48.094;-1.690;2023-04-06T07:54:51;12.20;;;9.30;;
27612;SDS011;15036;48.094;-1.690;2023-04-06T07:57:16;11.87;;;9.27;;
27612;SDS011;15036;48.094;-1.690;2023-04-06T07:59:42;12.97;;;9.23;;
27612;SDS011;15036;48.094;-1.690;2023-04-06T08:02:07;10.97;;;9.00;;
27612;SDS011;15036;48.094;-1.690;2023-04-06T08:04:32;10.53;;;8.57;;
27612;SDS011;15036;48.094;-1.690;2023-04-06T08:06:58;11.27;;;9.00;;
27612;SDS011;15036;48.094;-1.690;2023-04-06T08:09:23;11.07;;;9.02;;
27612;SDS011;15036;48.094;-1.690;2023-04-06T08:11:49;11.13;;;8.57;;
27612;SDS011;15036;48.094;-1.690;2023-04-06T08:14:15;10.00;;;8.60;;
27612;SDS011;15036;48.094;-1.690;2023-04-06T08:16:41;11.40;;;9.00;;
27612;SDS011;15036;48.094;-1.690;2023-04-06T08:19:06;9.47;;;8.33;;
27612;SDS011;15036;48.094;-1.690;2023-04-06T08:21:34;10.85;;;7.95;;
27612;SDS011;15036;48.094;-1.690;2023-04-06T08:24:00;11.38;;;8.02;;
27612;SDS011;15036;48.094;-1.690;2023-04-06T08:26:26;11.55;;;8.18;;
27612;SDS011;15036;48.094;-1.690;2023-04-06T08:28:53;10.77;;;7.97;;
27612;SDS011;15036;48.094;-1.690;2023-04-06T08:31:18;9.90;;;7.83;;
27612;SDS011;15036;48.094;-1.690;2023-04-06T08:33:43;9.87;;;7.93;;
27612;SDS011;15036;48.094;-1.690;2023-04-06T08:36:10;11.98;;;8.27;;
27612;SDS011;15036;48.094;-1.690;2023-04-06T08:38:40;11.70;;;8.10;;
27612;SDS011;15036;48.094;-1.690;2023-04-06T08:41:10;10.18;;;7.78;;
27612;SDS011;15036;48.094;-1.690;2023-04-06T08:43:57;9.18;;;7.30;;
27612;SDS011;15036;48.094;-1.690;2023-04-06T08:46:23;8.55;;;7.30;;
27612;SDS011;15036;48.094;-1.690;2023-04-06T08:48:54;8.10;;;6.97;;
27612;SDS011;15036;48.094;-1.690;2023-04-06T08:51:20;11.82;;;7.40;;
27612;SDS011;15036;48.094;-1.690;2023-04-06T08:53:48;8.65;;;7.20;;
27612;SDS011;15036;48.094;-1.690;2023-04-06T08:56:15;8.40;;;7.25;;
27612;SDS011;15036;48.094;-1.690;2023-04-06T08:58:40;8.68;;;6.72;;
27612;SDS011;15036;48.094;-1.690;2023-04-06T09:01:07;9.23;;;6.55;;
27612;SDS011;15036;48.094;-1.690;2023-04-06T09:03:35;9.00;;;6.63;;
27612;SDS011;15036;48.094;-1.690;2023-04-06T09:06:04;6.80;;;5.80;;
27612;SDS011;15036;48.094;-1.690;2023-04-06T09:08:30;9.55;;;6.10;;
27612;SDS011;15036;48.094;-1.690;2023-04-06T09:10:56;6.70;;;5.57;;
27612;SDS011;15036;48.094;-1.690;2023-04-06T09:13:21;7.00;;;5.40;;
27612;SDS011;15036;48.094;-1.690;2023-04-06T09:15:47;6.78;;;4.70;;
27612;SDS011;15036;48.094;-1.690;2023-04-06T09:18:33;7.55;;;5.38;;
27612;SDS011;15036;48.094;-1.690;2023-04-06T09:21:03;7.53;;;5.03;;
27612;SDS011;15036;48.094;-1.690;2023-04-06T09:23:30;6.15;;;4.88;;
27612;SDS011;15036;48.094;-1.690;2023-04-06T09:26:09;5.77;;;4.90;;
27612;SDS011;15036;48.094;-1.690;2023-04-06T09:31:14;6.30;;;4.85;;
27612;SDS011;15036;48.094;-1.690;2023-04-06T09:33:42;7.38;;;5.60;;
27612;SDS011;15036;48.094;-1.690;2023-04-06T09:36:09;8.45;;;6.05;;
27612;SDS011;15036;48.094;-1.690;2023-04-06T09:38:38;9.37;;;6.70;;
27612;SDS011;15036;48.094;-1.690;2023-04-06T09:43:52;9.48;;;8.13;;
27612;SDS011;15036;48.094;-1.690;2023-04-06T09:46:28;12.65;;;10.32;;
27612;SDS011;15036;48.094;-1.690;2023-04-06T09:48:56;15.02;;;10.45;;
27612;SDS011;15036;48.094;-1.690;2023-04-06T09:51:23;14.63;;;10.57;;
27612;SDS011;15036;48.094;-1.690;2023-04-06T09:53:52;11.80;;;10.18;;
27612;SDS011;15036;48.094;-1.690;2023-04-06T09:56:20;12.55;;;10.30;;
27612;SDS011;15036;48.094;-1.690;2023-04-06T09:58:50;14.03;;;11.60;;
27612;SDS011;15036;48.094;-1.690;2023-04-06T10:01:21;13.57;;;11.82;;
27612;SDS011;15036;48.094;-1.690;2023-04-06T10:03:53;13.57;;;11.80;;
27612;SDS011;15036;48.094;-1.690;2023-04-06T10:06:21;14.55;;;10.73;;
27612;SDS011;15036;48.094;-1.690;2023-04-06T10:08:50;12.52;;;11.23;;
27612;SDS011;15036;48.094;-1.690;2023-04-06T10:11:20;12.95;;;11.55;;
27612;SDS011;15036;48.094;-1.690;2023-04-06T10:13:46;14.05;;;11.57;;
27612;SDS011;15036;48.094;-1.690;2023-04-06T10:16:14;11.82;;;9.98;;
27612;SDS011;15036;48.094;-1.690;2023-04-06T10:18:40;10.55;;;9.45;;
27612;SDS011;15036;48.094;-1.690;2023-04-06T10:21:11;11.33;;;10.13;;
27612;SDS011;15036;48.094;-1.690;2023-04-06T10:23:45;11.63;;;10.45;;
27612;SDS011;15036;48.094;-1.690;2023-04-06T10:26:14;10.40;;;8.90;;
27612;SDS011;15036;48.094;-1.690;2023-04-06T10:28:42;9.65;;;8.60;;
27612;SDS011;15036;48.094;-1.690;2023-04-06T10:31:08;11.13;;;9.80;;
27612;SDS011;15036;48.094;-1.690;2023-04-06T10:33:34;10.53;;;9.43;;
27612;SDS011;15036;48.094;-1.690;2023-04-06T10:36:12;11.30;;;10.23;;
27612;SDS011;15036;48.094;-1.690;2023-04-06T10:38:39;9.73;;;8.82;;
27612;SDS011;15036;48.094;-1.690;2023-04-06T10:41:07;10.48;;;9.48;;
27612;SDS011;15036;48.094;-1.690;2023-04-06T10:43:34;10.82;;;9.82;;
27612;SDS011;15036;48.094;-1.690;2023-04-06T10:46:01;12.30;;;11.10;;
27612;SDS011;15036;48.094;-1.690;2023-04-06T10:51:26;12.43;;;11.23;;
27612;SDS011;15036;48.094;-1.690;2023-04-06T10:53:52;12.35;;;11.23;;
27612;SDS011;15036;48.094;-1.690;2023-04-06T10:56:21;11.38;;;10.27;;
27612;SDS011;15036;48.094;-1.690;2023-04-06T10:58:47;10.88;;;9.88;;
27612;SDS011;15036;48.094;-1.690;2023-04-06T11:01:17;10.43;;;9.33;;
27612;SDS011;15036;48.094;-1.690;2023-04-06T11:03:51;9.45;;;8.65;;
27612;SDS011;15036;48.094;-1.690;2023-04-06T11:06:23;8.63;;;6.90;;
27612;SDS011;15036;48.094;-1.690;2023-04-06T11:08:52;7.30;;;6.47;;
27612;SDS011;15036;48.094;-1.690;2023-04-06T11:11:18;7.25;;;5.88;;
27612;SDS011;15036;48.094;-1.690;2023-04-06T11:13:50;4.85;;;4.32;;
27612;SDS011;15036;48.094;-1.690;2023-04-06T11:16:17;4.80;;;3.88;;
27612;SDS011;15036;48.094;-1.690;2023-04-06T11:18:54;4.88;;;3.50;;
27612;SDS011;15036;48.094;-1.690;2023-04-06T11:22:06;6.32;;;3.90;;
27612;SDS011;15036;48.094;-1.690;2023-04-06T11:26:47;10.23;;;8.45;;
27612;SDS011;15036;48.094;-1.690;2023-04-06T11:29:19;7.57;;;5.63;;
27612;SDS011;15036;48.094;-1.690;2023-04-06T11:31:47;16.80;;;12.27;;
27612;SDS011;15036;48.094;-1.690;2023-04-06T11:34:16;15.18;;;12.13;;
27612;SDS011;15036;48.094;-1.690;2023-04-06T11:36:43;6.53;;;5.18;;
27612;SDS011;15036;48.094;-1.690;2023-04-06T11:39:10;4.70;;;3.42;;
27612;SDS011;15036;48.094;-1.690;2023-04-06T11:41:37;3.78;;;2.40;;
27612;SDS011;15036;48.094;-1.690;2023-04-06T11:44:02;5.10;;;2.20;;
27612;SDS011;15036;48.094;-1.690;2023-04-06T11:46:28;4.25;;;2.58;;
27612;SDS011;15036;48.094;-1.690;2023-04-06T11:48:57;5.33;;;2.70;;
27612;SDS011;15036;48.094;-1.690;2023-04-06T11:51:24;4.05;;;2.17;;
27612;SDS011;15036;48.094;-1.690;2023-04-06T11:53:51;3.70;;;1.85;;
27612;SDS011;15036;48.094;-1.690;2023-04-06T11:56:27;3.85;;;2.03;;
27612;SDS011;15036;48.094;-1.690;2023-04-06T11:58:54;5.03;;;2.53;;
27612;SDS011;15036;48.094;-1.690;2023-04-06T12:01:21;6.22;;;2.40;;
27612;SDS011;15036;48.094;-1.690;2023-04-06T12:03:47;4.57;;;2.15;;
27612;SDS011;15036;48.094;-1.690;2023-04-06T12:06:12;6.40;;;2.33;;
27612;SDS011;15036;48.094;-1.690;2023-04-06T12:08:38;4.50;;;1.83;;
27612;SDS011;15036;48.094;-1.690;2023-04-06T12:11:03;5.75;;;2.28;;
27612;SDS011;15036;48.094;-1.690;2023-04-06T12:13:29;5.50;;;2.20;;
27612;SDS011;15036;48.094;-1.690;2023-04-06T12:15:54;7.13;;;2.10;;
27612;SDS011;15036;48.094;-1.690;2023-04-06T12:18:20;4.97;;;1.83;;
27612;SDS011;15036;48.094;-1.690;2023-04-06T12:20:45;4.93;;;1.80;;
27612;SDS011;15036;48.094;-1.690;2023-04-06T12:23:10;4.00;;;1.80;;
27612;SDS011;15036;48.094;-1.690;2023-04-06T12:25:41;4.32;;;1.77;;
27612;SDS011;15036;48.094;-1.690;2023-04-06T12:28:07;3.33;;;1.70;;
27612;SDS011;15036;48.094;-1.690;2023-04-06T12:30:34;5.22;;;1.80;;
27612;SDS011;15036;48.094;-1.690;2023-04-06T12:33:00;4.93;;;1.70;;
27612;SDS011;15036;48.094;-1.690;2023-04-06T12:35:25;4.10;;;1.73;;
27612;SDS011;15036;48.094;-1.690;2023-04-06T12:37:50;4.75;;;2.10;;
27612;SDS011;15036;48.094;-1.690;2023-04-06T12:40:16;5.17;;;2.20;;
27612;SDS011;15036;48.094;-1.690;2023-04-06T12:42:41;5.17;;;2.80;;
27612;SDS011;15036;48.094;-1.690;2023-04-06T12:45:07;3.70;;;2.10;;
27612;SDS011;15036;48.094;-1.690;2023-04-06T12:47:33;5.57;;;2.35;;
27612;SDS011;15036;48.094;-1.690;2023-04-06T12:50:00;5.45;;;2.55;;
27612;SDS011;15036;48.094;-1.690;2023-04-06T12:52:26;8.50;;;3.40;;
27612;SDS011;15036;48.094;-1.690;2023-04-06T12:54:52;6.10;;;2.67;;
27612;SDS011;15036;48.094;-1.690;2023-04-06T12:57:17;5.77;;;3.10;;
27612;SDS011;15036;48.094;-1.690;2023-04-06T12:59:43;7.95;;;2.70;;
27612;SDS011;15036;48.094;-1.690;2023-04-06T13:02:09;6.10;;;3.53;;
27612;SDS011;15036;48.094;-1.690;2023-04-06T13:04:35;6.88;;;2.88;;
27612;SDS011;15036;48.094;-1.690;2023-04-06T13:07:01;6.10;;;2.80;;
27612;SDS011;15036;48.094;-1.690;2023-04-06T13:09:26;6.50;;;2.67;;
27612;SDS011;15036;48.094;-1.690;2023-04-06T13:11:52;6.47;;;2.42;;
27612;SDS011;15036;48.094;-1.690;2023-04-06T13:14:17;4.33;;;1.80;;
27612;SDS011;15036;48.094;-1.690;2023-04-06T13:16:42;6.70;;;2.10;;
27612;SDS011;15036;48.094;-1.690;2023-04-06T13:19:08;4.90;;;1.80;;
27612;SDS011;15036;48.094;-1.690;2023-04-06T13:21:33;4.95;;;2.50;;
27612;SDS011;15036;48.094;-1.690;2023-04-06T13:23:58;6.27;;;1.80;;
27612;SDS011;15036;48.094;-1.690;2023-04-06T13:26:24;5.00;;;1.70;;
27612;SDS011;15036;48.094;-1.690;2023-04-06T13:28:50;4.38;;;1.40;;
27612;SDS011;15036;48.094;-1.690;2023-04-06T13:31:16;6.22;;;2.72;;
27612;SDS011;15036;48.094;-1.690;2023-04-06T13:33:41;4.60;;;1.67;;
27612;SDS011;15036;48.094;-1.690;2023-04-06T13:36:07;6.50;;;3.03;;
27612;SDS011;15036;48.094;-1.690;2023-04-06T13:38:33;5.35;;;1.52;;
27612;SDS011;15036;48.094;-1.690;2023-04-06T13:40:58;5.00;;;1.60;;
27612;SDS011;15036;48.094;-1.690;2023-04-06T13:43:24;5.28;;;1.50;;
27612;SDS011;15036;48.094;-1.690;2023-04-06T13:45:52;5.18;;;2.10;;
27612;SDS011;15036;48.094;-1.690;2023-04-06T13:48:19;4.80;;;1.70;;
27612;SDS011;15036;48.094;-1.690;2023-04-06T13:50:45;3.43;;;1.27;;
27612;SDS011;15036;48.094;-1.690;2023-04-06T13:53:11;3.73;;;1.20;;
27612;SDS011;15036;48.094;-1.690;2023-04-06T13:55:36;5.47;;;1.60;;
27612;SDS011;15036;48.094;-1.690;2023-04-06T13:58:01;6.67;;;1.60;;
27612;SDS011;15036;48.094;-1.690;2023-04-06T14:00:27;4.60;;;1.23;;
27612;SDS011;15036;48.094;-1.690;2023-04-06T14:02:55;6.63;;;2.33;;
27612;SDS011;15036;48.094;-1.690;2023-04-06T14:05:21;6.03;;;1.90;;
27612;SDS011;15036;48.094;-1.690;2023-04-06T14:07:48;4.93;;;1.60;;
27612;SDS011;15036;48.094;-1.690;2023-04-06T14:10:14;4.25;;;1.42;;
27612;SDS011;15036;48.094;-1.690;2023-04-06T14:12:42;5.10;;;1.60;;
27612;SDS011;15036;48.094;-1.690;2023-04-06T14:15:10;4.25;;;1.60;;
27612;SDS011;15036;48.094;-1.690;2023-04-06T14:17:37;5.40;;;1.70;;
27612;SDS011;15036;48.094;-1.690;2023-04-06T14:20:03;4.18;;;1.50;;
27612;SDS011;15036;48.094;-1.690;2023-04-06T14:22:30;4.22;;;1.50;;
27612;SDS011;15036;48.094;-1.690;2023-04-06T14:24:56;4.17;;;1.50;;